Time;durP1;ratioP1;P1;durP2;ratioP2;P2;SDS_P1;SDS_P2;PMS_P1;PMS_P2;Temp;Humidity;BMP_temperature;BMP_pressure;BME280_temperature;BME280_humidity;BME280_pressure;Samples;Min_cycle;Max_cycle;Signal;HPM_P1;HPM_P2
2023/09/01 00:00:58;;;;;;;3.53;1.92;;;12.10;99.90;;;;;;5133941;28;20051;-85
2023/09/01 00:03:24;;;;;;;4.22;2.05;;;12.10;99.90;;;;;;5133301;28;20053;-85
2023/09/01 00:05:50;;;;;;;2.03;1.80;;;12.10;99.90;;;;;;5134198;28;20118;-85
2023/09/01 00:08:16;;;;;;;2.70;1.80;;;12.10;99.90;;;;;;5134385;28;20035;-87
2023/09/01 00:10:42;;;;;;;3.28;1.73;;;12.10;99.90;;;;;;5119664;28;20126;-85
2023/09/01 00:13:07;;;;;;;4.80;2.35;;;12.00;99.90;;;;;;5116076;28;20499;-82
2023/09/01 00:15:33;;;;;;;2.80;1.90;;;12.00;99.90;;;;;;5115373;28;20035;-84
2023/09/01 00:17:59;;;;;;;2.28;1.85;;;12.00;99.90;;;;;;5136812;28;20036;-84
2023/09/01 00:20:25;;;;;;;4.20;1.80;;;12.00;99.90;;;;;;5145613;28;20039;-85
2023/09/01 00:22:51;;;;;;;2.33;1.95;;;12.00;99.90;;;;;;5142699;28;20176;-85
2023/09/01 00:25:16;;;;;;;3.83;2.47;;;12.00;99.90;;;;;;5126818;28;20050;-84
2023/09/01 00:27:42;;;;;;;1.80;1.60;;;12.00;99.90;;;;;;5142454;28;20131;-83
2023/09/01 00:30:09;;;;;;;4.00;1.90;;;11.90;99.90;;;;;;5107439;27;20440;-83
2023/09/01 00:32:35;;;;;;;4.45;2.25;;;11.90;99.90;;;;;;5142815;27;20100;-84
2023/09/01 00:35:02;;;;;;;2.58;2.10;;;12.00;99.90;;;;;;5142216;27;20058;-85
2023/09/01 00:37:28;;;;;;;6.90;2.08;;;11.90;99.90;;;;;;5138498;27;20043;-83
2023/09/01 00:39:55;;;;;;;5.07;2.42;;;11.90;99.90;;;;;;5137189;27;20058;-85
2023/09/01 00:42:20;;;;;;;5.57;1.85;;;11.90;99.90;;;;;;5118724;27;20396;-85
2023/09/01 00:44:46;;;;;;;2.92;2.15;;;11.90;99.90;;;;;;5137516;27;20039;-83
2023/09/01 00:47:13;;;;;;;2.33;1.80;;;11.90;99.90;;;;;;5118650;27;20378;-85
2023/09/01 00:49:39;;;;;;;2.90;1.60;;;11.90;99.90;;;;;;5137229;27;20096;-83
2023/09/01 00:52:05;;;;;;;2.92;2.55;;;11.80;99.90;;;;;;5136976;27;20490;-85
2023/09/01 00:54:31;;;;;;;2.20;1.70;;;11.80;99.90;;;;;;5136846;27;20047;-84
2023/09/01 00:56:57;;;;;;;5.82;1.98;;;11.80;99.90;;;;;;5136853;27;20485;-83
2023/09/01 00:59:23;;;;;;;3.80;1.80;;;11.70;99.90;;;;;;5101317;27;20409;-83
2023/09/01 01:01:50;;;;;;;2.95;2.13;;;11.70;99.90;;;;;;5136771;27;20078;-83
2023/09/01 01:04:17;;;;;;;2.08;1.85;;;11.80;99.90;;;;;;5118387;27;20047;-85
2023/09/01 01:07:06;;;;;;;5.25;2.17;;;11.70;99.90;;;;;;5136272;27;20416;-83
2023/09/01 01:09:56;;;;;;;2.40;1.80;;;11.70;99.90;;;;;;5119041;27;20460;-81
2023/09/01 01:12:31;;;;;;;2.42;1.80;;;11.70;99.90;;;;;;5136553;27;20090;-85
2023/09/01 01:15:01;;;;;;;2.85;2.30;;;11.70;99.90;;;;;;5136952;27;20126;-83
2023/09/01 01:17:28;;;;;;;3.00;2.20;;;11.60;99.90;;;;;;5136313;27;20047;-85
2023/09/01 01:20:18;;;;;;;2.45;1.90;;;11.70;99.90;;;;;;5136394;27;20059;-84
2023/09/01 01:23:09;;;;;;;4.82;2.40;;;11.70;99.90;;;;;;5136783;27;20055;-81
2023/09/01 01:25:36;;;;;;;5.53;2.05;;;11.60;99.90;;;;;;5125794;27;20176;-82
2023/09/01 01:28:08;;;;;;;2.83;2.13;;;11.60;99.90;;;;;;5136087;27;20066;-82
2023/09/01 01:30:34;;;;;;;4.13;2.00;;;11.60;99.90;;;;;;5136047;27;20050;-84
2023/09/01 01:33:00;;;;;;;1.92;1.80;;;11.50;99.90;;;;;;5117621;27;20053;-84
2023/09/01 01:35:32;;;;;;;3.00;1.92;;;11.40;99.90;;;;;;5135944;27;20047;-85
2023/09/01 01:38:03;;;;;;;3.83;2.00;;;11.40;99.90;;;;;;5135863;27;20039;-84
2023/09/01 01:40:30;;;;;;;3.17;2.33;;;11.40;99.90;;;;;;5135678;27;20100;-83
2023/09/01 01:42:58;;;;;;;5.20;2.35;;;11.30;99.90;;;;;;5135737;27;20111;-85
2023/09/01 01:45:24;;;;;;;3.03;2.30;;;11.30;99.90;;;;;;5135686;27;20047;-83
2023/09/01 01:47:51;;;;;;;2.90;2.58;;;11.30;99.90;;;;;;5135583;27;20088;-84
2023/09/01 01:50:17;;;;;;;3.10;2.20;;;11.30;99.90;;;;;;5135780;27;20061;-83
2023/09/01 01:52:43;;;;;;;4.53;2.40;;;11.30;99.90;;;;;;5135513;27;20039;-83
2023/09/01 01:55:09;;;;;;;3.83;2.35;;;11.30;99.90;;;;;;5135937;27;20047;-83
2023/09/01 01:57:38;;;;;;;3.78;2.58;;;11.30;99.90;;;;;;5135526;27;20039;-83
2023/09/01 02:00:11;;;;;;;4.55;2.75;;;11.30;99.90;;;;;;5135441;27;20082;-79
2023/09/01 02:02:38;;;;;;;3.20;2.40;;;11.30;99.90;;;;;;5135835;27;20402;-84
2023/09/01 02:05:06;;;;;;;3.45;2.30;;;11.40;99.90;;;;;;5135331;27;20054;-85
2023/09/01 02:07:33;;;;;;;3.28;2.58;;;11.40;99.90;;;;;;5135478;27;20046;-82
2023/09/01 02:09:58;;;;;;;7.20;2.70;;;11.30;99.90;;;;;;5135002;27;20058;-83
2023/09/01 02:12:24;;;;;;;4.45;2.47;;;11.30;99.90;;;;;;5117071;27;20035;-83
2023/09/01 02:14:50;;;;;;;5.30;2.47;;;11.30;99.90;;;;;;5135412;27;20039;-82
2023/09/01 02:17:15;;;;;;;3.13;2.38;;;11.20;99.90;;;;;;5135144;27;20127;-83
2023/09/01 02:19:41;;;;;;;4.90;2.55;;;11.30;99.90;;;;;;5135015;27;20055;-83
2023/09/01 02:22:07;;;;;;;2.50;2.10;;;11.30;99.90;;;;;;5135250;27;20122;-86
2023/09/01 02:24:33;;;;;;;4.13;2.15;;;11.20;99.90;;;;;;5134924;27;20086;-83
2023/09/01 02:26:59;;;;;;;3.33;2.20;;;11.20;99.90;;;;;;5135322;27;20043;-85
2023/09/01 02:29:25;;;;;;;2.25;2.05;;;11.20;99.90;;;;;;5134907;27;20050;-84
2023/09/01 02:31:53;;;;;;;3.53;2.33;;;11.20;99.90;;;;;;5134951;27;20487;-83
2023/09/01 02:34:19;;;;;;;2.20;1.98;;;11.20;99.90;;;;;;5134755;27;20043;-85
2023/09/01 02:36:45;;;;;;;2.97;2.35;;;11.20;99.90;;;;;;5134621;27;20483;-86
2023/09/01 02:39:11;;;;;;;4.20;2.35;;;11.10;99.90;;;;;;5134373;27;20373;-83
2023/09/01 02:41:37;;;;;;;3.55;2.33;;;11.10;99.90;;;;;;5134613;27;20051;-85
2023/09/01 02:44:04;;;;;;;5.28;2.42;;;11.10;99.90;;;;;;5134473;27;20035;-84
2023/09/01 02:46:30;;;;;;;4.45;2.33;;;11.00;99.90;;;;;;5135027;27;20125;-84
2023/09/01 02:48:56;;;;;;;4.07;2.50;;;11.00;99.90;;;;;;5134315;27;20122;-85
2023/09/01 02:51:22;;;;;;;4.28;2.47;;;11.00;99.90;;;;;;5135109;27;20071;-85
2023/09/01 02:53:48;;;;;;;3.30;2.33;;;11.00;99.90;;;;;;5133322;27;20107;-83
2023/09/01 02:56:14;;;;;;;3.58;2.33;;;11.00;99.90;;;;;;5134987;27;20051;-82
2023/09/01 02:58:40;;;;;;;5.13;2.47;;;11.00;99.90;;;;;;5134639;27;20104;-86
2023/09/01 03:01:07;;;;;;;2.65;2.17;;;11.00;99.90;;;;;;5134258;27;20043;-84
2023/09/01 03:03:38;;;;;;;6.28;2.50;;;11.00;99.90;;;;;;5134735;27;20374;-85
2023/09/01 03:06:10;;;;;;;2.47;2.28;;;11.00;99.90;;;;;;5134329;27;20047;-85
2023/09/01 03:08:37;;;;;;;3.20;2.65;;;11.00;99.90;;;;;;5134545;27;20078;-83
2023/09/01 03:11:03;;;;;;;4.68;2.80;;;10.90;99.90;;;;;;5133820;27;20050;-84
2023/09/01 03:13:29;;;;;;;4.63;2.60;;;10.90;99.90;;;;;;5116214;27;20039;-82
2023/09/01 03:15:56;;;;;;;4.43;2.88;;;10.90;99.90;;;;;;5133965;27;20114;-83
2023/09/01 03:18:23;;;;;;;4.43;2.13;;;10.90;99.90;;;;;;5133933;27;20047;-84
2023/09/01 03:20:55;;;;;;;4.32;2.20;;;10.90;99.90;;;;;;5134043;27;20069;-83
2023/09/01 03:23:21;;;;;;;2.70;2.22;;;10.80;99.90;;;;;;5133800;27;20062;-83
2023/09/01 03:25:56;;;;;;;3.88;2.97;;;10.80;99.90;;;;;;5115462;27;20087;-82
2023/09/01 03:28:23;;;;;;;2.30;2.10;;;10.80;99.90;;;;;;5115230;27;20188;-81
2023/09/01 03:30:48;;;;;;;2.53;2.10;;;10.80;99.90;;;;;;5115544;27;20050;-83
2023/09/01 03:33:14;;;;;;;3.25;2.42;;;10.70;99.90;;;;;;5133730;27;20035;-83
2023/09/01 03:35:40;;;;;;;2.70;2.17;;;10.70;99.90;;;;;;5098824;28;20146;-83
2023/09/01 03:38:06;;;;;;;4.35;2.65;;;10.70;99.90;;;;;;5133530;27;20039;-84
2023/09/01 03:40:32;;;;;;;2.67;2.47;;;10.70;99.90;;;;;;5133707;27;20047;-84
2023/09/01 03:42:57;;;;;;;6.25;3.38;;;10.60;99.90;;;;;;5133616;27;20039;-81
2023/09/01 03:45:23;;;;;;;7.70;2.95;;;10.60;99.90;;;;;;5134150;28;20050;-83
2023/09/01 03:47:49;;;;;;;3.72;3.08;;;10.70;99.90;;;;;;5138544;28;20122;-79
2023/09/01 03:50:14;;;;;;;3.97;2.70;;;10.60;99.90;;;;;;5144272;28;20043;-83
2023/09/01 03:52:40;;;;;;;3.63;2.28;;;10.60;99.90;;;;;;5145051;28;20084;-83
2023/09/01 03:55:06;;;;;;;2.78;2.38;;;10.60;99.90;;;;;;5127251;28;20119;-83
2023/09/01 03:57:32;;;;;;;4.90;2.42;;;10.60;99.90;;;;;;5126143;28;20548;-80
2023/09/01 03:59:57;;;;;;;3.53;2.70;;;10.50;99.90;;;;;;5145005;28;20038;-81
2023/09/01 04:02:23;;;;;;;3.63;2.70;;;10.50;99.90;;;;;;5142948;28;20113;-80
2023/09/01 04:04:49;;;;;;;3.22;2.50;;;10.50;99.90;;;;;;5140768;27;20045;-83
2023/09/01 04:07:14;;;;;;;6.55;2.90;;;10.50;99.90;;;;;;5138685;27;20484;-84
2023/09/01 04:09:40;;;;;;;2.72;2.25;;;10.50;99.90;;;;;;5137736;27;20039;-83
2023/09/01 04:12:06;;;;;;;3.67;2.55;;;10.50;99.90;;;;;;5138059;27;20043;-83
2023/09/01 04:14:32;;;;;;;3.70;3.00;;;10.50;99.90;;;;;;5138191;27;20047;-83
2023/09/01 04:16:58;;;;;;;3.05;2.58;;;10.50;99.90;;;;;;5138331;27;20494;-81
2023/09/01 04:19:23;;;;;;;2.75;2.47;;;10.60;99.90;;;;;;5138180;27;20477;-84
2023/09/01 04:21:49;;;;;;;3.72;2.42;;;10.50;99.90;;;;;;5138377;27;20473;-82
2023/09/01 04:24:15;;;;;;;3.45;2.45;;;10.50;99.90;;;;;;5137537;27;20129;-85
2023/09/01 04:26:41;;;;;;;4.82;3.03;;;10.50;99.90;;;;;;5119385;27;20130;-79
2023/09/01 04:29:06;;;;;;;4.45;3.58;;;10.50;99.90;;;;;;5137382;27;20047;-83
2023/09/01 04:31:32;;;;;;;5.68;3.00;;;10.40;99.90;;;;;;5137333;27;20472;-83
2023/09/01 04:33:58;;;;;;;6.13;3.17;;;10.40;99.90;;;;;;5136906;27;20066;-83
2023/09/01 04:36:24;;;;;;;3.92;2.85;;;10.20;99.90;;;;;;5118597;27;20424;-83
2023/09/01 04:38:50;;;;;;;3.33;2.50;;;10.10;99.90;;;;;;5118630;27;20119;-83
2023/09/01 04:41:16;;;;;;;7.00;3.60;;;10.10;99.90;;;;;;5118759;27;20515;-83
2023/09/01 04:43:43;;;;;;;4.07;2.70;;;10.10;99.90;;;;;;5136781;27;20043;-83
2023/09/01 04:46:09;;;;;;;7.57;3.38;;;10.20;99.90;;;;;;5136782;27;20047;-82
2023/09/01 04:48:36;;;;;;;5.35;3.00;;;10.20;99.90;;;;;;5137255;27;20042;-82
2023/09/01 04:51:02;;;;;;;3.55;2.88;;;10.10;99.90;;;;;;5136468;27;20055;-82
2023/09/01 04:53:29;;;;;;;3.67;2.70;;;10.10;99.90;;;;;;5136481;27;20050;-82
2023/09/01 04:55:55;;;;;;;3.88;2.50;;;10.10;99.90;;;;;;5136476;27;20039;-82
2023/09/01 04:58:21;;;;;;;3.53;2.35;;;10.00;99.90;;;;;;5118773;27;20062;-82
2023/09/01 05:00:54;;;;;;;5.18;2.55;;;10.00;99.90;;;;;;5118229;27;20452;-82
2023/09/01 05:03:20;;;;;;;3.90;2.70;;;10.10;99.90;;;;;;5136234;27;20043;-83
2023/09/01 05:05:47;;;;;;;2.92;2.42;;;10.00;99.90;;;;;;5135965;27;20376;-83
2023/09/01 05:08:13;;;;;;;3.25;2.92;;;10.10;99.90;;;;;;5136182;27;20046;-83
2023/09/01 05:10:38;;;;;;;3.47;2.40;;;10.20;99.90;;;;;;5136476;27;20047;-82
2023/09/01 05:13:04;;;;;;;6.07;2.72;;;10.10;99.90;;;;;;5136400;27;20043;-82
2023/09/01 05:15:30;;;;;;;3.08;2.78;;;10.10;99.90;;;;;;5135765;27;20043;-82
2023/09/01 05:17:56;;;;;;;4.65;3.33;;;10.10;99.90;;;;;;5135188;27;20035;-82
2023/09/01 05:20:22;;;;;;;4.15;2.75;;;10.10;99.90;;;;;;5136001;27;20473;-82
2023/09/01 05:22:48;;;;;;;3.17;2.53;;;10.30;99.90;;;;;;5135740;27;20099;-82
2023/09/01 05:25:14;;;;;;;4.75;3.15;;;10.30;99.90;;;;;;5136155;27;20043;-81
2023/09/01 05:27:40;;;;;;;2.75;2.33;;;10.40;99.90;;;;;;5135511;27;20051;-82
2023/09/01 05:30:06;;;;;;;5.50;3.17;;;10.50;99.90;;;;;;5117425;27;20383;-81
2023/09/01 05:32:33;;;;;;;3.58;3.00;;;10.40;99.90;;;;;;5135771;27;20140;-82
2023/09/01 05:34:59;;;;;;;3.80;2.42;;;10.50;99.90;;;;;;5136058;27;20039;-85
2023/09/01 05:37:25;;;;;;;3.50;2.78;;;10.50;99.90;;;;;;5136062;27;20452;-82
2023/09/01 05:39:51;;;;;;;3.55;2.85;;;10.50;99.90;;;;;;5135702;27;20495;-83
2023/09/01 05:42:16;;;;;;;8.88;2.80;;;10.50;99.90;;;;;;5135430;27;20043;-84
2023/09/01 05:44:42;;;;;;;4.15;2.42;;;10.70;99.90;;;;;;5135425;27;20088;-82
2023/09/01 05:47:08;;;;;;;4.25;2.30;;;10.80;99.90;;;;;;5135406;27;20054;-82
2023/09/01 05:49:34;;;;;;;6.68;3.15;;;10.90;99.90;;;;;;5117266;27;20114;-83
2023/09/01 05:52:01;;;;;;;7.68;3.85;;;11.10;99.90;;;;;;5135380;27;20059;-82
2023/09/01 05:54:27;;;;;;;4.25;3.20;;;11.10;99.90;;;;;;5135197;27;20051;-82
2023/09/01 05:56:53;;;;;;;5.05;3.20;;;11.20;99.90;;;;;;5135410;27;20043;-82
2023/09/01 05:59:19;;;;;;;8.25;3.83;;;11.30;99.90;;;;;;5134984;27;20050;-83
2023/09/01 06:01:46;;;;;;;3.38;3.08;;;11.40;99.90;;;;;;5116739;27;20043;-83
2023/09/01 06:04:12;;;;;;;6.05;3.33;;;11.50;99.90;;;;;;5135130;27;20059;-83
2023/09/01 06:06:39;;;;;;;3.30;2.75;;;11.70;99.90;;;;;;5134644;27;20046;-83
2023/09/01 06:09:05;;;;;;;4.57;3.00;;;11.80;99.90;;;;;;5135461;27;20047;-83
2023/09/01 06:11:32;;;;;;;4.78;2.88;;;11.90;99.90;;;;;;5134947;27;20487;-83
2023/09/01 06:13:58;;;;;;;3.15;2.88;;;12.00;99.90;;;;;;5134894;27;20051;-82
2023/09/01 06:16:27;;;;;;;7.45;3.75;;;12.10;99.90;;;;;;5116700;27;20051;-83
2023/09/01 06:18:54;;;;;;;6.18;3.13;;;12.20;99.90;;;;;;5134971;27;20046;-83
2023/09/01 06:21:20;;;;;;;6.10;3.40;;;12.20;99.90;;;;;;5134875;27;20043;-83
2023/09/01 06:23:47;;;;;;;5.20;3.28;;;12.30;99.90;;;;;;5116652;27;20039;-82
2023/09/01 06:26:18;;;;;;;6.25;3.30;;;12.30;99.90;;;;;;5100277;27;20089;-83
2023/09/01 06:28:46;;;;;;;4.32;2.67;;;12.40;99.90;;;;;;5134793;27;20059;-82
2023/09/01 06:31:13;;;;;;;7.40;2.60;;;12.50;99.90;;;;;;5116451;27;20386;-82
2023/09/01 06:33:43;;;;;;;3.05;2.47;;;12.60;99.90;;;;;;5134712;27;20035;-83
2023/09/01 06:36:13;;;;;;;3.03;2.70;;;12.70;99.90;;;;;;5134541;27;20058;-82
2023/09/01 06:38:40;;;;;;;3.25;2.35;;;12.80;99.90;;;;;;5134430;27;20042;-82
2023/09/01 06:41:06;;;;;;;3.03;2.67;;;12.90;99.90;;;;;;5134447;27;20035;-82
2023/09/01 06:43:31;;;;;;;3.58;2.72;;;13.10;99.90;;;;;;5134424;27;20058;-83
2023/09/01 06:45:58;;;;;;;6.63;3.25;;;13.30;99.90;;;;;;5134504;27;20470;-82
2023/09/01 06:48:24;;;;;;;3.95;3.38;;;13.50;99.90;;;;;;5134257;27;20082;-82
2023/09/01 06:50:50;;;;;;;3.70;2.65;;;13.70;99.90;;;;;;5134514;27;20476;-84
2023/09/01 06:53:16;;;;;;;3.80;2.53;;;13.80;99.90;;;;;;5134347;27;20047;-82
2023/09/01 06:55:43;;;;;;;3.85;3.40;;;14.00;99.90;;;;;;5134292;27;20047;-82
2023/09/01 06:58:09;;;;;;;8.27;6.75;;;14.10;99.90;;;;;;5134836;27;20070;-81
2023/09/01 07:00:34;;;;;;;13.85;11.55;;;14.30;99.90;;;;;;5116280;27;20506;-81
2023/09/01 07:03:00;;;;;;;15.23;12.20;;;14.50;99.90;;;;;;5134256;27;20100;-83
2023/09/01 07:05:26;;;;;;;18.55;11.77;;;14.60;99.90;;;;;;5133970;27;20134;-82
2023/09/01 07:07:52;;;;;;;8.52;7.55;;;14.70;99.90;;;;;;5116421;27;20039;-82
2023/09/01 07:10:18;;;;;;;9.57;8.18;;;14.80;99.90;;;;;;5115727;27;20073;-83
2023/09/01 07:12:44;;;;;;;10.93;8.98;;;14.90;99.90;;;;;;5133938;27;20039;-82
2023/09/01 07:15:10;;;;;;;9.05;6.13;;;15.10;99.90;;;;;;5134171;27;20189;-81
2023/09/01 07:17:36;;;;;;;5.70;5.03;;;15.50;99.90;;;;;;5134094;27;20046;-82
2023/09/01 07:20:03;;;;;;;4.15;3.75;;;16.50;99.90;;;;;;5115742;27;20047;-81
2023/09/01 07:22:29;;;;;;;4.10;2.70;;;17.40;99.90;;;;;;5134702;27;20039;-82
2023/09/01 07:24:54;;;;;;;3.17;2.10;;;18.00;99.90;;;;;;5133759;27;20495;-82
2023/09/01 07:27:20;;;;;;;2.88;2.60;;;18.50;99.90;;;;;;5139463;27;20043;-81
2023/09/01 07:29:48;;;;;;;3.20;1.90;;;18.90;99.90;;;;;;5120853;27;20066;-82
2023/09/01 07:32:15;;;;;;;3.25;2.53;;;19.20;99.90;;;;;;5138515;27;20126;-82
2023/09/01 07:34:41;;;;;;;3.65;1.90;;;19.50;99.90;;;;;;5135523;27;20444;-81
2023/09/01 07:37:07;;;;;;;2.22;2.03;;;19.80;99.90;;;;;;5134430;27;20043;-80
2023/09/01 07:39:34;;;;;;;2.67;2.05;;;19.90;99.90;;;;;;5133863;27;20035;-80
2023/09/01 07:41:59;;;;;;;2.10;1.90;;;19.90;99.90;;;;;;5134058;27;20043;-81
2023/09/01 07:44:25;;;;;;;3.63;2.30;;;19.80;99.90;;;;;;5134028;28;20051;-80
2023/09/01 07:46:51;;;;;;;4.78;1.85;;;19.80;99.90;;;;;;5133843;28;20039;-80
2023/09/01 07:49:16;;;;;;;4.07;1.80;;;19.20;99.90;;;;;;5133653;28;20494;-79
2023/09/01 07:51:43;;;;;;;4.55;2.30;;;19.10;99.90;;;;;;5133634;28;20127;-81
2023/09/01 07:54:08;;;;;;;3.85;1.95;;;19.30;99.90;;;;;;5115443;28;20436;-80
2023/09/01 07:56:34;;;;;;;2.22;2.00;;;19.30;99.90;;;;;;5133874;28;20046;-80
2023/09/01 07:59:01;;;;;;;3.03;1.80;;;19.30;99.90;;;;;;5134525;28;20074;-80
2023/09/01 08:01:26;;;;;;;2.50;2.22;;;19.30;99.90;;;;;;5133973;28;20050;-79
2023/09/01 08:03:52;;;;;;;3.30;1.90;;;19.20;99.90;;;;;;5115916;28;20051;-81
2023/09/01 08:06:18;;;;;;;2.70;2.42;;;19.20;99.90;;;;;;5134020;28;20083;-81
2023/09/01 08:08:43;;;;;;;3.03;1.85;;;19.00;99.90;;;;;;5134146;28;20120;-82
2023/09/01 08:11:09;;;;;;;3.10;1.77;;;19.00;99.90;;;;;;5133398;28;20445;-82
2023/09/01 08:13:35;;;;;;;2.80;1.52;;;19.20;99.90;;;;;;5133523;28;20043;-81
2023/09/01 08:16:00;;;;;;;2.58;1.80;;;19.40;99.90;;;;;;5134245;28;20043;-81
2023/09/01 08:18:26;;;;;;;3.17;2.13;;;19.50;99.90;;;;;;5134461;28;20046;-83
2023/09/01 08:20:52;;;;;;;3.45;1.88;;;19.60;99.90;;;;;;5139088;28;20094;-82
2023/09/01 08:23:21;;;;;;;3.10;1.67;;;19.70;99.90;;;;;;5145489;28;20484;-82
2023/09/01 08:25:50;;;;;;;3.33;1.23;;;19.90;99.90;;;;;;5137571;28;20114;-82
2023/09/01 08:28:16;;;;;;;2.45;1.38;;;20.00;99.90;;;;;;5133092;28;20100;-81
2023/09/01 08:30:41;;;;;;;2.55;1.65;;;20.10;99.90;;;;;;5133467;28;20051;-81
2023/09/01 08:33:08;;;;;;;2.63;1.60;;;20.40;99.90;;;;;;5133173;28;20452;-82
2023/09/01 08:35:34;;;;;;;2.53;1.60;;;20.70;99.90;;;;;;5114972;28;20083;-82
2023/09/01 08:38:00;;;;;;;2.13;1.83;;;20.90;99.90;;;;;;5133222;28;20460;-82
2023/09/01 08:40:26;;;;;;;3.55;1.70;;;21.00;99.90;;;;;;5132992;28;20043;-83
2023/09/01 08:42:54;;;;;;;2.80;1.77;;;21.20;99.90;;;;;;5114681;28;20062;-82
2023/09/01 08:45:21;;;;;;;2.38;1.85;;;21.30;99.90;;;;;;5098166;28;20131;-82
2023/09/01 08:47:48;;;;;;;3.30;1.75;;;21.30;99.90;;;;;;5114452;28;20043;-83
2023/09/01 08:50:16;;;;;;;3.97;1.65;;;21.30;99.90;;;;;;5132880;27;20043;-82
2023/09/01 08:52:46;;;;;;;1.58;1.48;;;21.30;99.90;;;;;;5135280;27;20556;-83
2023/09/01 08:55:17;;;;;;;1.77;1.52;;;21.00;99.90;;;;;;5137144;27;20065;-82
2023/09/01 08:57:44;;;;;;;3.55;1.98;;;20.70;99.90;;;;;;5136279;27;20043;-82
2023/09/01 09:00:10;;;;;;;4.28;1.73;;;20.50;99.90;;;;;;5117930;27;20054;-82
2023/09/01 09:02:43;;;;;;;3.47;1.27;;;20.50;99.90;;;;;;5118271;27;20100;-81
2023/09/01 09:05:13;;;;;;;2.55;1.48;;;20.60;99.90;;;;;;5136091;27;20043;-82
2023/09/01 09:07:38;;;;;;;2.13;1.58;;;20.50;99.90;;;;;;5117564;27;20096;-82
2023/09/01 09:10:06;;;;;;;1.88;1.70;;;20.30;99.90;;;;;;5118700;27;20047;-82
2023/09/01 09:12:36;;;;;;;2.08;1.52;;;20.10;99.90;;;;;;5117761;27;20445;-83
2023/09/01 09:15:03;;;;;;;7.43;2.35;;;20.10;99.90;;;;;;5118036;27;20122;-83
2023/09/01 09:17:46;;;;;;;3.28;1.88;;;20.20;99.90;;;;;;5117793;27;20608;-82
2023/09/01 09:20:14;;;;;;;;;;;20.30;99.90;;;;;;5118231;27;20051;-82
2023/09/01 09:23:01;;;;;;;2.60;1.70;;;20.20;99.90;;;;;;5135954;27;19943;-80
2023/09/01 09:25:31;;;;;;;3.63;1.55;;;20.20;99.90;;;;;;5136071;27;20081;-83
2023/09/01 09:28:09;;;;;;;1.85;1.45;;;20.40;99.90;;;;;;5117590;27;20055;-80
2023/09/01 09:30:35;;;;;;;4.07;1.75;;;20.50;99.90;;;;;;5135463;27;20451;-81
2023/09/01 09:33:05;;;;;;;3.25;1.50;;;20.40;99.90;;;;;;5136427;27;20135;-80
2023/09/01 09:35:47;;;;;;;6.30;1.80;;;20.40;99.90;;;;;;5100846;27;20062;-80
2023/09/01 09:38:13;;;;;;;2.75;1.55;;;20.40;99.90;;;;;;5117461;27;20406;-80
2023/09/01 09:40:38;;;;;;;2.20;1.48;;;20.40;99.90;;;;;;5136062;27;20041;-80
2023/09/01 09:43:08;;;;;;;2.15;1.30;;;20.30;99.90;;;;;;5136079;27;20039;-80
2023/09/01 09:45:34;;;;;;;6.47;1.77;;;20.30;99.90;;;;;;5135667;27;20478;-80
2023/09/01 09:48:02;;;;;;;3.95;1.60;;;20.10;99.90;;;;;;5135494;27;20043;-79
2023/09/01 09:50:29;;;;;;;3.05;1.60;;;19.90;99.90;;;;;;5135487;27;20468;-80
2023/09/01 09:52:59;;;;;;;3.38;1.75;;;19.60;99.90;;;;;;5135416;27;20039;-81
2023/09/01 09:55:27;;;;;;;2.58;1.60;;;19.60;99.90;;;;;;5135904;27;20043;-81
2023/09/01 09:58:00;;;;;;;3.10;1.77;;;19.50;99.90;;;;;;5135233;27;20043;-83
2023/09/01 10:00:29;;;;;;;4.72;2.00;;;19.60;99.90;;;;;;5135598;27;20050;-82
2023/09/01 10:02:59;;;;;;;3.83;2.10;;;19.60;99.90;;;;;;5135470;27;20107;-82
2023/09/01 10:05:28;;;;;;;5.15;2.08;;;19.40;99.90;;;;;;5135329;27;20040;-82
2023/09/01 10:07:55;;;;;;;5.80;2.13;;;19.40;99.90;;;;;;5117242;27;20039;-82
2023/09/01 10:10:22;;;;;;;6.25;2.15;;;19.30;99.90;;;;;;5135520;27;20055;-82
2023/09/01 10:12:47;;;;;;;4.53;1.70;;;19.30;99.90;;;;;;5135792;27;20128;-82
2023/09/01 10:15:15;;;;;;;3.08;1.83;;;19.30;99.90;;;;;;5135047;27;20050;-82
2023/09/01 10:17:43;;;;;;;4.72;2.47;;;19.40;99.90;;;;;;5134930;27;20092;-82
2023/09/01 10:20:10;;;;;;;3.35;1.80;;;19.40;99.90;;;;;;5116915;27;20168;-82
2023/09/01 10:22:38;;;;;;;3.53;1.77;;;19.40;99.90;;;;;;5117429;27;20348;-82
2023/09/01 10:25:19;;;;;;;5.28;2.30;;;19.40;99.90;;;;;;5135450;27;20120;-82
2023/09/01 10:28:05;;;;;;;4.70;2.20;;;19.50;99.90;;;;;;5134643;27;20082;-82
2023/09/01 10:30:36;;;;;;;4.90;2.00;;;19.50;99.90;;;;;;5134757;27;20053;-82
2023/09/01 10:33:16;;;;;;;4.50;1.80;;;19.50;99.90;;;;;;5134249;27;20393;-82
2023/09/01 10:35:53;;;;;;;2.75;1.83;;;19.50;99.90;;;;;;5135118;27;20062;-82
2023/09/01 10:38:21;;;;;;;3.13;1.90;;;19.40;99.90;;;;;;5134873;27;20039;-82
2023/09/01 10:40:54;;;;;;;2.72;1.90;;;19.60;99.90;;;;;;5134385;27;20043;-81
2023/09/01 10:43:35;;;;;;;5.22;1.98;;;19.90;99.90;;;;;;5116754;27;20050;-82
2023/09/01 10:46:24;;;;;;;6.35;2.58;;;20.00;99.90;;;;;;5116131;27;20043;-81
2023/09/01 10:48:54;;;;;;;3.50;1.83;;;20.20;99.90;;;;;;5123562;27;20108;-82
2023/09/01 10:51:21;;;;;;;2.95;2.03;;;20.40;99.90;;;;;;5135308;27;20078;-81
2023/09/01 10:53:52;;;;;;;2.28;1.70;;;20.50;99.90;;;;;;5140771;27;20031;-81
2023/09/01 10:56:20;;;;;;;2.95;2.05;;;20.70;99.90;;;;;;5139773;27;20039;-81
2023/09/01 10:58:54;;;;;;;3.83;1.55;;;20.80;99.90;;;;;;5138703;27;20042;-81
2023/09/01 11:01:36;;;;;;;2.83;1.60;;;20.90;99.90;;;;;;5117131;27;20456;-82
2023/09/01 11:04:14;;;;;;;4.47;1.98;;;21.10;99.90;;;;;;5115975;27;20465;-82
2023/09/01 11:06:58;;;;;;;7.90;2.55;;;21.10;99.90;;;;;;5134735;27;20047;-82
2023/09/01 11:09:43;;;;;;;6.53;2.10;;;20.90;99.90;;;;;;5134236;27;20467;-82
2023/09/01 11:12:13;;;;;;;4.20;2.28;;;20.90;99.90;;;;;;5134337;27;20045;-82
2023/09/01 11:14:54;;;;;;;9.02;4.13;;;20.70;99.90;;;;;;5133329;27;20456;-82
2023/09/01 11:17:38;;;;;;;3.78;3.13;;;20.80;99.90;;;;;;5134437;27;20051;-82
2023/09/01 11:20:08;;;;;;;5.65;2.67;;;20.80;99.90;;;;;;5134187;27;20404;-82
2023/09/01 11:22:34;;;;;;;3.65;2.75;;;20.90;99.90;;;;;;5133851;27;20130;-82
2023/09/01 11:25:00;;;;;;;3.88;3.15;;;20.90;99.90;;;;;;5133946;27;20047;-81
2023/09/01 11:27:25;;;;;;;5.68;2.88;;;20.70;99.90;;;;;;5134099;27;20094;-82
2023/09/01 11:29:54;;;;;;;4.55;2.80;;;20.80;99.90;;;;;;5134199;27;20423;-81
2023/09/01 11:32:27;;;;;;;7.43;4.32;;;20.70;99.90;;;;;;5115695;28;20360;-82
2023/09/01 11:34:53;;;;;;;6.53;4.22;;;20.80;99.90;;;;;;5133866;27;20059;-81
2023/09/01 11:37:40;;;;;;;5.50;4.40;;;21.00;99.90;;;;;;5133804;27;20079;-81
2023/09/01 11:40:12;;;;;;;6.88;4.28;;;21.00;99.90;;;;;;5134221;27;20047;-82
2023/09/01 11:42:39;;;;;;;8.20;3.90;;;20.90;99.90;;;;;;5133958;27;20043;-82
2023/09/01 11:45:07;;;;;;;4.95;3.88;;;21.00;99.90;;;;;;5133776;27;20507;-81
2023/09/01 11:47:33;;;;;;;7.10;3.92;;;21.10;99.90;;;;;;5133656;28;20129;-82
2023/09/01 11:50:00;;;;;;;6.05;4.07;;;21.10;99.90;;;;;;5133626;28;20122;-83
2023/09/01 11:52:25;;;;;;;7.68;4.32;;;21.20;99.90;;;;;;5099121;28;20100;-82
2023/09/01 11:54:54;;;;;;;8.18;4.63;;;21.30;99.90;;;;;;5133493;28;20513;-82
2023/09/01 11:57:20;;;;;;;5.20;4.35;;;21.40;99.90;;;;;;5133964;28;20424;-82
2023/09/01 11:59:47;;;;;;;7.03;4.32;;;21.40;99.90;;;;;;5133436;28;20050;-83
2023/09/01 12:02:18;;;;;;;6.30;4.18;;;21.50;99.90;;;;;;5133286;28;20058;-82
2023/09/01 12:04:48;;;;;;;11.27;5.35;;;21.50;99.90;;;;;;5115312;28;20043;-82
2023/09/01 12:07:28;;;;;;;6.38;4.95;;;21.50;99.90;;;;;;5133929;28;20047;-82
2023/09/01 12:09:55;;;;;;;8.52;4.90;;;21.60;99.90;;;;;;5114579;28;20051;-82
2023/09/01 12:12:21;;;;;;;5.80;4.65;;;21.60;99.90;;;;;;5133789;28;20047;-82
2023/09/01 12:14:47;;;;;;;7.95;5.30;;;21.80;99.90;;;;;;5132990;28;20555;-82
2023/09/01 12:17:21;;;;;;;5.80;4.70;;;21.80;99.90;;;;;;5133363;28;20126;-82
2023/09/01 12:19:49;;;;;;;8.15;5.30;;;21.80;99.90;;;;;;5133754;28;20043;-82
2023/09/01 12:22:16;;;;;;;7.13;5.10;;;21.70;99.90;;;;;;5133579;28;20043;-82
2023/09/01 12:24:55;;;;;;;9.13;6.43;;;21.60;99.90;;;;;;5133217;28;20054;-82
2023/09/01 12:27:21;;;;;;;7.95;5.90;;;21.60;99.90;;;;;;5137129;27;20043;-82
2023/09/01 12:29:48;;;;;;;7.43;5.18;;;21.60;99.90;;;;;;5137375;27;20062;-82
2023/09/01 12:32:14;;;;;;;6.65;4.95;;;21.70;99.90;;;;;;5137467;27;20126;-82
2023/09/01 12:34:41;;;;;;;8.55;5.63;;;21.70;99.90;;;;;;5137573;27;20070;-82
2023/09/01 12:37:07;;;;;;;8.60;6.65;;;21.80;99.90;;;;;;5137092;27;20380;-83
2023/09/01 12:39:34;;;;;;;11.43;7.18;;;21.80;99.90;;;;;;5137461;27;20054;-83
2023/09/01 12:42:00;;;;;;;7.70;6.72;;;21.70;99.90;;;;;;5136743;27;20039;-82
2023/09/01 12:44:27;;;;;;;8.27;6.63;;;21.90;99.90;;;;;;5136877;27;20122;-82
2023/09/01 12:46:54;;;;;;;7.78;7.07;;;21.90;99.90;;;;;;5136912;27;20051;-82
2023/09/01 12:49:19;;;;;;;7.90;7.10;;;22.00;99.90;;;;;;5137117;27;20045;-81
2023/09/01 12:51:45;;;;;;;7.20;6.50;;;22.10;99.90;;;;;;5137165;27;20126;-82